sensor_id;sensor_type;location;lat;lon;timestamp;pressure;altitude;pressure_sealevel;temperature;humidity
34081;BME280;20358;50.272;19.026;2022-10-31T00:01:13;98648.13;;;12.74;76.73
34081;BME280;20358;50.272;19.026;2022-10-31T00:04:20;98651.03;;;12.70;76.53
34081;BME280;20358;50.272;19.026;2022-10-31T00:07:26;98646.97;;;12.64;76.67
34081;BME280;20358;50.272;19.026;2022-10-31T00:10:37;98635.88;;;12.59;76.78
34081;BME280;20358;50.272;19.026;2022-10-31T00:13:42;98643.19;;;12.54;76.65
34081;BME280;20358;50.272;19.026;2022-10-31T00:16:49;98644.22;;;12.52;76.88
34081;BME280;20358;50.272;19.026;2022-10-31T00:19:55;98642.69;;;12.48;76.85
34081;BME280;20358;50.272;19.026;2022-10-31T00:23:04;98646.53;;;12.42;76.75
34081;BME280;20358;50.272;19.026;2022-10-31T00:26:14;98643.31;;;12.37;77.19
34081;BME280;20358;50.272;19.026;2022-10-31T00:29:20;98645.38;;;12.32;77.37
34081;BME280;20358;50.272;19.026;2022-10-31T00:32:28;98642.13;;;12.27;77.45
34081;BME280;20358;50.272;19.026;2022-10-31T00:35:35;98638.91;;;12.22;77.44
34081;BME280;20358;50.272;19.026;2022-10-31T00:38:41;98644.38;;;12.19;77.63
34081;BME280;20358;50.272;19.026;2022-10-31T00:41:50;98646.22;;;12.17;77.82
34081;BME280;20358;50.272;19.026;2022-10-31T00:44:56;98629.88;;;12.12;77.75
34081;BME280;20358;50.272;19.026;2022-10-31T00:48:05;98638.53;;;12.14;77.92
34081;BME280;20358;50.272;19.026;2022-10-31T00:51:11;98636.88;;;12.11;77.85
34081;BME280;20358;50.272;19.026;2022-10-31T00:54:17;98640.53;;;12.09;77.48
34081;BME280;20358;50.272;19.026;2022-10-31T00:57:27;98644.28;;;12.05;78.18
34081;BME280;20358;50.272;19.026;2022-10-31T01:00:34;98641.75;;;12.03;78.82
34081;BME280;20358;50.272;19.026;2022-10-31T01:03:40;98642.56;;;12.04;78.58
34081;BME280;20358;50.272;19.026;2022-10-31T01:06:48;98642.56;;;12.04;78.62
34081;BME280;20358;50.272;19.026;2022-10-31T01:09:54;98640.06;;;12.02;78.42
34081;BME280;20358;50.272;19.026;2022-10-31T01:13:06;98640.16;;;12.01;78.48
34081;BME280;20358;50.272;19.026;2022-10-31T01:16:14;98646.31;;;12.00;78.69
34081;BME280;20358;50.272;19.026;2022-10-31T01:19:20;98653.28;;;12.01;79.05
34081;BME280;20358;50.272;19.026;2022-10-31T01:22:30;98650.47;;;12.04;79.19
34081;BME280;20358;50.272;19.026;2022-10-31T01:25:36;98651.03;;;12.09;79.19
34081;BME280;20358;50.272;19.026;2022-10-31T01:28:49;98640.53;;;12.09;78.97
34081;BME280;20358;50.272;19.026;2022-10-31T01:31:56;98650.72;;;12.15;78.49
34081;BME280;20358;50.272;19.026;2022-10-31T01:35:04;98650.88;;;12.12;78.14
34081;BME280;20358;50.272;19.026;2022-10-31T01:38:10;98645.91;;;12.07;78.05
34081;BME280;20358;50.272;19.026;2022-10-31T01:41:18;98648.03;;;12.01;77.98
34081;BME280;20358;50.272;19.026;2022-10-31T01:44:49;98646.50;;;11.97;77.78
34081;BME280;20358;50.272;19.026;2022-10-31T01:47:56;98646.06;;;11.89;78.45
34081;BME280;20358;50.272;19.026;2022-10-31T01:51:04;98651.66;;;11.83;78.24
34081;BME280;20358;50.272;19.026;2022-10-31T01:54:12;98641.34;;;11.80;78.23
34081;BME280;20358;50.272;19.026;2022-10-31T01:57:20;98637.31;;;11.73;78.30
34081;BME280;20358;50.272;19.026;2022-10-31T02:00:29;98635.81;;;11.69;78.38
34081;BME280;20358;50.272;19.026;2022-10-31T02:03:36;98629.03;;;11.64;78.21
34081;BME280;20358;50.272;19.026;2022-10-31T02:06:45;98631.06;;;11.59;78.32
34081;BME280;20358;50.272;19.026;2022-10-31T02:09:56;98630.41;;;11.54;78.58
34081;BME280;20358;50.272;19.026;2022-10-31T02:13:06;98640.09;;;11.54;78.92
34081;BME280;20358;50.272;19.026;2022-10-31T02:16:23;98638.56;;;11.50;78.84
34081;BME280;20358;50.272;19.026;2022-10-31T02:19:34;98630.94;;;11.45;78.77
34081;BME280;20358;50.272;19.026;2022-10-31T02:30:07;98641.25;;;11.33;79.25
34081;BME280;20358;50.272;19.026;2022-10-31T02:33:24;98649.38;;;11.28;79.15
34081;BME280;20358;50.272;19.026;2022-10-31T02:36:37;98643.31;;;11.26;79.91
34081;BME280;20358;50.272;19.026;2022-10-31T02:39:53;98644.19;;;11.27;80.15
34081;BME280;20358;50.272;19.026;2022-10-31T02:43:27;98654.75;;;11.25;81.15
34081;BME280;20358;50.272;19.026;2022-10-31T02:46:39;98650.44;;;11.24;81.55
34081;BME280;20358;50.272;19.026;2022-10-31T02:49:56;98647.06;;;11.22;81.61
34081;BME280;20358;50.272;19.026;2022-10-31T02:53:06;98654.16;;;11.20;81.58
34081;BME280;20358;50.272;19.026;2022-10-31T02:56:15;98642.72;;;11.21;81.85
34081;BME280;20358;50.272;19.026;2022-10-31T02:59:23;98645.19;;;11.24;81.56
34081;BME280;20358;50.272;19.026;2022-10-31T03:02:50;98649.38;;;11.28;81.38
34081;BME280;20358;50.272;19.026;2022-10-31T03:06:08;98650.28;;;11.27;80.87
34081;BME280;20358;50.272;19.026;2022-10-31T03:09:23;98657.03;;;11.31;80.61
34081;BME280;20358;50.272;19.026;2022-10-31T03:12:38;98656.22;;;11.31;80.18
34081;BME280;20358;50.272;19.026;2022-10-31T03:15:54;98666.88;;;11.28;80.13
34081;BME280;20358;50.272;19.026;2022-10-31T03:19:08;98660.00;;;11.25;79.83
34081;BME280;20358;50.272;19.026;2022-10-31T03:22:21;98664.47;;;11.23;80.16
34081;BME280;20358;50.272;19.026;2022-10-31T03:25:29;98668.09;;;11.21;80.03
34081;BME280;20358;50.272;19.026;2022-10-31T03:28:40;98669.91;;;11.20;80.14
34081;BME280;20358;50.272;19.026;2022-10-31T03:31:53;98674.44;;;11.17;80.21
34081;BME280;20358;50.272;19.026;2022-10-31T03:35:02;98674.53;;;11.15;79.83
34081;BME280;20358;50.272;19.026;2022-10-31T03:38:17;98668.50;;;11.13;79.78
34081;BME280;20358;50.272;19.026;2022-10-31T03:41:28;98673.75;;;11.13;80.69
34081;BME280;20358;50.272;19.026;2022-10-31T03:44:41;98665.41;;;11.05;80.14
34081;BME280;20358;50.272;19.026;2022-10-31T03:47:48;98677.63;;;11.06;80.31
34081;BME280;20358;50.272;19.026;2022-10-31T03:50:59;98682.09;;;11.04;80.09
34081;BME280;20358;50.272;19.026;2022-10-31T03:54:14;98688.41;;;11.00;80.01
34081;BME280;20358;50.272;19.026;2022-10-31T03:57:25;98686.88;;;10.96;80.64
34081;BME280;20358;50.272;19.026;2022-10-31T04:00:33;98682.56;;;10.95;80.77
34081;BME280;20358;50.272;19.026;2022-10-31T04:03:42;98688.66;;;10.95;80.65
34081;BME280;20358;50.272;19.026;2022-10-31T04:06:50;98687.97;;;10.92;80.52
34081;BME280;20358;50.272;19.026;2022-10-31T04:10:04;98682.78;;;10.90;80.42
34081;BME280;20358;50.272;19.026;2022-10-31T04:13:14;98689.03;;;10.88;80.32
34081;BME280;20358;50.272;19.026;2022-10-31T04:16:35;98693.59;;;10.84;80.44
34081;BME280;20358;50.272;19.026;2022-10-31T04:19:43;98690.19;;;10.82;80.34
34081;BME280;20358;50.272;19.026;2022-10-31T04:22:50;98692.16;;;10.79;80.33
34081;BME280;20358;50.272;19.026;2022-10-31T04:25:58;98698.28;;;10.78;80.26
34081;BME280;20358;50.272;19.026;2022-10-31T04:29:05;98702.00;;;10.74;80.31
34081;BME280;20358;50.272;19.026;2022-10-31T04:32:13;98703.06;;;10.70;80.32
34081;BME280;20358;50.272;19.026;2022-10-31T04:35:19;98698.06;;;10.65;80.64
34081;BME280;20358;50.272;19.026;2022-10-31T04:38:27;98696.44;;;10.63;80.53
34081;BME280;20358;50.272;19.026;2022-10-31T04:41:37;98699.97;;;10.62;80.37
34081;BME280;20358;50.272;19.026;2022-10-31T04:44:48;98706.31;;;10.58;79.96
34081;BME280;20358;50.272;19.026;2022-10-31T04:47:56;98704.88;;;10.51;79.97
34081;BME280;20358;50.272;19.026;2022-10-31T04:51:08;98698.19;;;10.45;80.39
34081;BME280;20358;50.272;19.026;2022-10-31T04:54:15;98694.78;;;10.43;80.53
34081;BME280;20358;50.272;19.026;2022-10-31T04:57:53;98697.50;;;10.41;80.58
34081;BME280;20358;50.272;19.026;2022-10-31T05:01:04;98704.59;;;10.39;80.58
34081;BME280;20358;50.272;19.026;2022-10-31T05:04:09;98703.97;;;10.34;80.52
34081;BME280;20358;50.272;19.026;2022-10-31T05:07:17;98701.41;;;10.33;80.56
34081;BME280;20358;50.272;19.026;2022-10-31T05:10:24;98700.72;;;10.29;80.43
34081;BME280;20358;50.272;19.026;2022-10-31T05:13:36;98705.94;;;10.29;80.45
34081;BME280;20358;50.272;19.026;2022-10-31T05:16:48;98700.81;;;10.26;80.46
34081;BME280;20358;50.272;19.026;2022-10-31T05:20:15;98704.34;;;10.25;80.61
34081;BME280;20358;50.272;19.026;2022-10-31T05:23:44;98708.06;;;10.21;80.31
34081;BME280;20358;50.272;19.026;2022-10-31T05:26:51;98697.56;;;10.21;80.68
34081;BME280;20358;50.272;19.026;2022-10-31T05:30:00;98713.34;;;10.20;80.66
34081;BME280;20358;50.272;19.026;2022-10-31T05:33:08;98710.81;;;10.18;80.47
34081;BME280;20358;50.272;19.026;2022-10-31T05:36:55;98715.28;;;10.16;80.91
34081;BME280;20358;50.272;19.026;2022-10-31T05:40:02;98721.34;;;10.17;80.59
34081;BME280;20358;50.272;19.026;2022-10-31T05:43:10;98712.84;;;10.12;80.58
34081;BME280;20358;50.272;19.026;2022-10-31T05:46:20;98731.00;;;10.16;80.76
34081;BME280;20358;50.272;19.026;2022-10-31T05:50:04;98728.41;;;10.15;81.09
34081;BME280;20358;50.272;19.026;2022-10-31T05:53:24;98732.63;;;10.19;80.95
34081;BME280;20358;50.272;19.026;2022-10-31T05:56:30;98730.75;;;10.21;81.22
34081;BME280;20358;50.272;19.026;2022-10-31T05:59:37;98734.09;;;10.24;81.00
34081;BME280;20358;50.272;19.026;2022-10-31T06:02:46;98737.38;;;10.29;80.95
34081;BME280;20358;50.272;19.026;2022-10-31T06:06:13;98746.16;;;10.28;80.65
34081;BME280;20358;50.272;19.026;2022-10-31T06:09:20;98749.63;;;10.27;80.47
34081;BME280;20358;50.272;19.026;2022-10-31T06:12:27;98742.72;;;10.26;81.11
34081;BME280;20358;50.272;19.026;2022-10-31T06:15:50;98751.25;;;10.31;81.30
34081;BME280;20358;50.272;19.026;2022-10-31T06:19:05;98746.50;;;10.39;81.68
34081;BME280;20358;50.272;19.026;2022-10-31T06:22:11;98743.72;;;10.43;81.64
34081;BME280;20358;50.272;19.026;2022-10-31T06:25:19;98750.22;;;10.53;81.88
34081;BME280;20358;50.272;19.026;2022-10-31T06:28:25;98755.94;;;10.61;81.54
34081;BME280;20358;50.272;19.026;2022-10-31T06:31:38;98744.47;;;10.63;81.70
34081;BME280;20358;50.272;19.026;2022-10-31T06:34:48;98757.81;;;10.76;81.82
34081;BME280;20358;50.272;19.026;2022-10-31T06:37:54;98758.28;;;10.84;81.91
34081;BME280;20358;50.272;19.026;2022-10-31T06:41:11;98750.44;;;10.84;81.92
34081;BME280;20358;50.272;19.026;2022-10-31T06:44:20;98760.75;;;10.87;82.21
34081;BME280;20358;50.272;19.026;2022-10-31T06:47:34;98757.06;;;10.91;82.67
34081;BME280;20358;50.272;19.026;2022-10-31T06:51:07;98764.44;;;11.00;82.29
34081;BME280;20358;50.272;19.026;2022-10-31T06:54:13;98760.63;;;11.07;82.24
34081;BME280;20358;50.272;19.026;2022-10-31T06:57:20;98764.63;;;11.14;82.23
34081;BME280;20358;50.272;19.026;2022-10-31T07:00:28;98767.84;;;11.19;81.71
34081;BME280;20358;50.272;19.026;2022-10-31T07:03:41;98778.81;;;11.27;81.52
34081;BME280;20358;50.272;19.026;2022-10-31T07:06:53;98772.47;;;11.31;81.65
34081;BME280;20358;50.272;19.026;2022-10-31T07:09:59;98771.47;;;11.34;81.42
34081;BME280;20358;50.272;19.026;2022-10-31T07:13:18;98772.16;;;11.37;81.37
34081;BME280;20358;50.272;19.026;2022-10-31T07:16:35;98773.03;;;11.38;81.20
34081;BME280;20358;50.272;19.026;2022-10-31T07:19:46;98778.78;;;11.44;81.15
34081;BME280;20358;50.272;19.026;2022-10-31T07:22:56;98787.28;;;11.49;81.25
34081;BME280;20358;50.272;19.026;2022-10-31T07:26:08;98782.47;;;11.57;81.22
34081;BME280;20358;50.272;19.026;2022-10-31T07:29:20;98782.16;;;11.63;81.02
34081;BME280;20358;50.272;19.026;2022-10-31T07:32:26;98781.66;;;11.74;80.72
34081;BME280;20358;50.272;19.026;2022-10-31T07:35:33;98785.72;;;11.80;80.39
34081;BME280;20358;50.272;19.026;2022-10-31T07:38:42;98790.56;;;11.87;80.51
34081;BME280;20358;50.272;19.026;2022-10-31T07:41:49;98784.91;;;11.95;80.52
34081;BME280;20358;50.272;19.026;2022-10-31T07:44:55;98782.13;;;11.98;79.87
34081;BME280;20358;50.272;19.026;2022-10-31T07:48:23;98792.06;;;12.08;79.94
34081;BME280;20358;50.272;19.026;2022-10-31T07:51:47;98783.59;;;12.19;79.39
34081;BME280;20358;50.272;19.026;2022-10-31T07:55:17;98782.31;;;12.26;79.19
34081;BME280;20358;50.272;19.026;2022-10-31T07:58:23;98785.97;;;12.39;79.39
34081;BME280;20358;50.272;19.026;2022-10-31T08:01:30;98789.69;;;12.51;79.07
34081;BME280;20358;50.272;19.026;2022-10-31T08:04:58;98789.84;;;12.63;78.72
34081;BME280;20358;50.272;19.026;2022-10-31T08:08:35;98787.31;;;12.77;78.41
34081;BME280;20358;50.272;19.026;2022-10-31T08:11:45;98786.88;;;12.85;78.12
34081;BME280;20358;50.272;19.026;2022-10-31T08:14:52;98798.69;;;12.94;77.85
34081;BME280;20358;50.272;19.026;2022-10-31T08:17:58;98790.34;;;13.01;77.43
34081;BME280;20358;50.272;19.026;2022-10-31T08:21:08;98795.06;;;13.10;77.32
34081;BME280;20358;50.272;19.026;2022-10-31T08:24:13;98788.53;;;13.17;77.04
34081;BME280;20358;50.272;19.026;2022-10-31T08:27:23;98792.41;;;13.26;76.82
34081;BME280;20358;50.272;19.026;2022-10-31T08:30:33;98788.38;;;13.34;76.52
34081;BME280;20358;50.272;19.026;2022-10-31T08:33:59;98792.09;;;13.46;76.27
34081;BME280;20358;50.272;19.026;2022-10-31T08:37:23;98794.91;;;13.57;76.03
34081;BME280;20358;50.272;19.026;2022-10-31T08:40:32;98791.19;;;13.61;74.94
34081;BME280;20358;50.272;19.026;2022-10-31T08:43:41;98793.16;;;13.72;74.44
34081;BME280;20358;50.272;19.026;2022-10-31T08:46:48;98795.50;;;13.76;73.96
34081;BME280;20358;50.272;19.026;2022-10-31T08:49:57;98791.56;;;13.83;73.96
34081;BME280;20358;50.272;19.026;2022-10-31T08:53:07;98791.88;;;13.93;73.73
34081;BME280;20358;50.272;19.026;2022-10-31T08:56:16;98800.13;;;14.01;73.15
34081;BME280;20358;50.272;19.026;2022-10-31T08:59:25;98798.75;;;14.09;72.75
34081;BME280;20358;50.272;19.026;2022-10-31T09:02:57;98801.66;;;14.19;72.65
34081;BME280;20358;50.272;19.026;2022-10-31T09:06:07;98795.72;;;14.30;72.49
34081;BME280;20358;50.272;19.026;2022-10-31T09:09:13;98802.31;;;14.37;71.97
34081;BME280;20358;50.272;19.026;2022-10-31T09:12:20;98798.16;;;14.47;71.80
34081;BME280;20358;50.272;19.026;2022-10-31T09:15:48;98800.00;;;14.59;71.99
34081;BME280;20358;50.272;19.026;2022-10-31T09:18:59;98803.72;;;14.69;71.92
34081;BME280;20358;50.272;19.026;2022-10-31T09:22:12;98810.09;;;14.79;71.59
34081;BME280;20358;50.272;19.026;2022-10-31T09:25:19;98805.72;;;14.92;71.71
34081;BME280;20358;50.272;19.026;2022-10-31T09:28:38;98805.16;;;15.01;71.43
34081;BME280;20358;50.272;19.026;2022-10-31T09:31:51;98804.53;;;15.10;71.57
34081;BME280;20358;50.272;19.026;2022-10-31T09:35:05;98812.63;;;15.21;71.34
34081;BME280;20358;50.272;19.026;2022-10-31T09:38:13;98796.59;;;15.24;70.95
34081;BME280;20358;50.272;19.026;2022-10-31T09:41:26;98806.13;;;15.40;70.71
34081;BME280;20358;50.272;19.026;2022-10-31T09:44:44;98800.97;;;15.51;70.50
34081;BME280;20358;50.272;19.026;2022-10-31T09:48:23;98803.81;;;15.60;69.73
34081;BME280;20358;50.272;19.026;2022-10-31T09:51:55;98795.16;;;15.71;69.37
34081;BME280;20358;50.272;19.026;2022-10-31T09:55:12;98797.69;;;15.85;69.06
34081;BME280;20358;50.272;19.026;2022-10-31T09:58:23;98792.63;;;15.94;69.03
34081;BME280;20358;50.272;19.026;2022-10-31T10:01:38;98803.19;;;16.07;68.76
34081;BME280;20358;50.272;19.026;2022-10-31T10:04:55;98803.34;;;16.18;68.59
34081;BME280;20358;50.272;19.026;2022-10-31T10:08:10;98799.16;;;16.27;68.61
34081;BME280;20358;50.272;19.026;2022-10-31T10:11:46;98804.44;;;16.39;68.26
34081;BME280;20358;50.272;19.026;2022-10-31T10:15:27;98798.06;;;16.54;67.78
34081;BME280;20358;50.272;19.026;2022-10-31T10:18:47;98797.69;;;16.72;66.53
34081;BME280;20358;50.272;19.026;2022-10-31T10:22:02;98794.78;;;16.87;65.46
34081;BME280;20358;50.272;19.026;2022-10-31T10:25:15;98793.03;;;16.99;65.47
34081;BME280;20358;50.272;19.026;2022-10-31T10:28:23;98796.59;;;17.10;65.13
34081;BME280;20358;50.272;19.026;2022-10-31T10:31:36;98792.19;;;17.22;64.81
34081;BME280;20358;50.272;19.026;2022-10-31T10:34:45;98787.19;;;17.30;63.95
34081;BME280;20358;50.272;19.026;2022-10-31T10:38:01;98784.09;;;17.47;63.59
34081;BME280;20358;50.272;19.026;2022-10-31T10:41:14;98778.06;;;17.56;62.72
34081;BME280;20358;50.272;19.026;2022-10-31T10:44:22;98788.00;;;17.65;63.12
34081;BME280;20358;50.272;19.026;2022-10-31T10:47:42;98783.66;;;17.75;62.26
34081;BME280;20358;50.272;19.026;2022-10-31T10:50:51;98787.53;;;17.83;61.63
34081;BME280;20358;50.272;19.026;2022-10-31T10:54:09;98785.13;;;17.91;61.12
34081;BME280;20358;50.272;19.026;2022-10-31T10:57:33;98781.81;;;18.00;60.77
34081;BME280;20358;50.272;19.026;2022-10-31T11:00:43;98778.66;;;18.06;60.70
34081;BME280;20358;50.272;19.026;2022-10-31T11:03:53;98778.31;;;18.10;60.64
34081;BME280;20358;50.272;19.026;2022-10-31T11:07:00;98777.72;;;18.18;60.39
34081;BME280;20358;50.272;19.026;2022-10-31T11:10:15;98775.53;;;18.23;60.81
34081;BME280;20358;50.272;19.026;2022-10-31T11:13:22;98773.34;;;18.28;60.14
34081;BME280;20358;50.272;19.026;2022-10-31T11:16:33;98775.78;;;18.31;60.02
34081;BME280;20358;50.272;19.026;2022-10-31T11:19:43;98768.28;;;18.36;60.28
34081;BME280;20358;50.272;19.026;2022-10-31T11:22:49;98769.47;;;18.43;60.32
34081;BME280;20358;50.272;19.026;2022-10-31T11:26:20;98767.06;;;18.51;60.45
34081;BME280;20358;50.272;19.026;2022-10-31T11:29:27;98766.69;;;18.56;60.92
34081;BME280;20358;50.272;19.026;2022-10-31T11:32:32;98754.88;;;18.60;60.31
34081;BME280;20358;50.272;19.026;2022-10-31T11:35:41;98765.22;;;18.63;59.71
34081;BME280;20358;50.272;19.026;2022-10-31T11:38:47;98757.13;;;18.64;59.22
34081;BME280;20358;50.272;19.026;2022-10-31T11:42:00;98764.72;;;18.69;59.81
34081;BME280;20358;50.272;19.026;2022-10-31T11:45:15;98753.84;;;18.72;59.92
34081;BME280;20358;50.272;19.026;2022-10-31T11:48:24;98754.47;;;18.75;59.61
34081;BME280;20358;50.272;19.026;2022-10-31T11:51:33;98758.41;;;18.81;59.72
34081;BME280;20358;50.272;19.026;2022-10-31T11:54:44;98753.72;;;18.84;59.44
34081;BME280;20358;50.272;19.026;2022-10-31T11:57:55;98754.34;;;18.88;58.94
34081;BME280;20358;50.272;19.026;2022-10-31T12:01:04;98752.38;;;18.90;58.96
34081;BME280;20358;50.272;19.026;2022-10-31T12:04:11;98752.13;;;18.93;59.14
34081;BME280;20358;50.272;19.026;2022-10-31T12:07:20;98755.50;;;18.95;59.32
34081;BME280;20358;50.272;19.026;2022-10-31T12:10:31;98749.09;;;18.97;59.15
34081;BME280;20358;50.272;19.026;2022-10-31T12:13:52;98741.00;;;18.99;59.11
34081;BME280;20358;50.272;19.026;2022-10-31T12:17:11;98745.47;;;18.98;59.04
34081;BME280;20358;50.272;19.026;2022-10-31T12:20:23;98742.81;;;18.98;58.87
34081;BME280;20358;50.272;19.026;2022-10-31T12:23:42;98740.75;;;19.02;58.41
34081;BME280;20358;50.272;19.026;2022-10-31T12:27:00;98734.09;;;19.08;58.25
34081;BME280;20358;50.272;19.026;2022-10-31T12:30:17;98741.28;;;19.17;58.04
34081;BME280;20358;50.272;19.026;2022-10-31T12:33:37;98734.75;;;19.21;58.18
34081;BME280;20358;50.272;19.026;2022-10-31T12:36:55;98737.16;;;19.24;57.88
34081;BME280;20358;50.272;19.026;2022-10-31T12:40:19;98728.06;;;19.26;57.47
34081;BME280;20358;50.272;19.026;2022-10-31T12:43:36;98716.19;;;19.30;57.70
34081;BME280;20358;50.272;19.026;2022-10-31T12:47:09;98727.16;;;19.37;57.34
34081;BME280;20358;50.272;19.026;2022-10-31T12:50:26;98731.25;;;19.41;57.28
34081;BME280;20358;50.272;19.026;2022-10-31T12:53:48;98729.03;;;19.46;57.26
34081;BME280;20358;50.272;19.026;2022-10-31T12:57:02;98719.00;;;19.49;57.35
34081;BME280;20358;50.272;19.026;2022-10-31T13:00:14;98719.00;;;19.49;57.79
34081;BME280;20358;50.272;19.026;2022-10-31T13:03:27;98719.84;;;19.50;57.93
34081;BME280;20358;50.272;19.026;2022-10-31T13:06:48;98715.94;;;19.54;57.46
34081;BME280;20358;50.272;19.026;2022-10-31T13:09:58;98721.25;;;19.54;57.99
34081;BME280;20358;50.272;19.026;2022-10-31T13:13:13;98710.50;;;19.55;57.97
34081;BME280;20358;50.272;19.026;2022-10-31T13:16:24;98717.63;;;19.55;57.84
34081;BME280;20358;50.272;19.026;2022-10-31T13:19:38;98708.97;;;19.53;57.92
34081;BME280;20358;50.272;19.026;2022-10-31T13:22:52;98712.44;;;19.53;58.10
34081;BME280;20358;50.272;19.026;2022-10-31T13:26:09;98724.63;;;19.56;57.65
34081;BME280;20358;50.272;19.026;2022-10-31T13:29:21;98714.84;;;19.56;57.65
34081;BME280;20358;50.272;19.026;2022-10-31T13:32:39;98719.03;;;19.59;57.43
34081;BME280;20358;50.272;19.026;2022-10-31T13:36:07;98716.13;;;19.62;57.59
34081;BME280;20358;50.272;19.026;2022-10-31T13:39:23;98718.09;;;19.60;57.19
34081;BME280;20358;50.272;19.026;2022-10-31T13:42:41;98713.47;;;19.62;57.53
34081;BME280;20358;50.272;19.026;2022-10-31T13:45:53;98704.78;;;19.60;57.41
34081;BME280;20358;50.272;19.026;2022-10-31T13:49:00;98715.44;;;19.60;57.62
34081;BME280;20358;50.272;19.026;2022-10-31T13:52:22;98703.09;;;19.59;57.75
34081;BME280;20358;50.272;19.026;2022-10-31T13:55:36;98707.00;;;19.55;57.94
34081;BME280;20358;50.272;19.026;2022-10-31T13:59:04;98707.25;;;19.52;58.02
34081;BME280;20358;50.272;19.026;2022-10-31T14:02:25;98712.84;;;19.49;58.25
34081;BME280;20358;50.272;19.026;2022-10-31T14:05:34;98703.31;;;19.46;58.27
34081;BME280;20358;50.272;19.026;2022-10-31T14:08:49;98703.31;;;19.46;58.48
34081;BME280;20358;50.272;19.026;2022-10-31T14:11:58;98706.09;;;19.45;58.38
34081;BME280;20358;50.272;19.026;2022-10-31T14:15:15;98699.09;;;19.44;58.30
34081;BME280;20358;50.272;19.026;2022-10-31T14:18:24;98699.34;;;19.41;58.59
34081;BME280;20358;50.272;19.026;2022-10-31T14:21:38;98694.28;;;19.38;58.67
34081;BME280;20358;50.272;19.026;2022-10-31T14:24:49;98699.75;;;19.36;58.75
34081;BME280;20358;50.272;19.026;2022-10-31T14:27:55;98701.00;;;19.32;58.84
34081;BME280;20358;50.272;19.026;2022-10-31T14:31:29;98697.50;;;19.32;58.83
34081;BME280;20358;50.272;19.026;2022-10-31T14:34:50;98701.50;;;19.26;58.97
34081;BME280;20358;50.272;19.026;2022-10-31T14:38:19;98699.25;;;19.22;58.94
34081;BME280;20358;50.272;19.026;2022-10-31T14:41:45;98692.75;;;19.15;59.22
34081;BME280;20358;50.272;19.026;2022-10-31T14:45:06;98693.78;;;19.02;59.35
34081;BME280;20358;50.272;19.026;2022-10-31T14:48:33;98684.13;;;19.01;59.50
34081;BME280;20358;50.272;19.026;2022-10-31T14:51:45;98685.34;;;18.97;59.62
34081;BME280;20358;50.272;19.026;2022-10-31T14:54:53;98694.81;;;18.90;59.72
34081;BME280;20358;50.272;19.026;2022-10-31T14:58:07;98690.97;;;18.83;59.98
34081;BME280;20358;50.272;19.026;2022-10-31T15:01:19;98683.50;;;18.77;60.02
34081;BME280;20358;50.272;19.026;2022-10-31T15:04:29;98687.88;;;18.67;60.02
34081;BME280;20358;50.272;19.026;2022-10-31T15:07:48;98691.97;;;18.60;60.57
34081;BME280;20358;50.272;19.026;2022-10-31T15:10:55;98684.78;;;18.51;60.82
34081;BME280;20358;50.272;19.026;2022-10-31T15:14:22;98689.88;;;18.43;60.96
34081;BME280;20358;50.272;19.026;2022-10-31T15:17:28;98680.28;;;18.31;61.36
34081;BME280;20358;50.272;19.026;2022-10-31T15:20:41;98673.19;;;18.20;61.42
34081;BME280;20358;50.272;19.026;2022-10-31T15:23:55;98680.28;;;18.09;61.73
34081;BME280;20358;50.272;19.026;2022-10-31T15:27:04;98675.75;;;18.00;61.90
34081;BME280;20358;50.272;19.026;2022-10-31T15:30:20;98678.13;;;17.92;61.95
34081;BME280;20358;50.272;19.026;2022-10-31T15:33:28;98678.84;;;17.83;62.33
34081;BME280;20358;50.272;19.026;2022-10-31T15:36:42;98677.88;;;17.72;62.25
34081;BME280;20358;50.272;19.026;2022-10-31T15:39:49;98676.69;;;17.65;62.50
34081;BME280;20358;50.272;19.026;2022-10-31T15:42:57;98680.88;;;17.57;62.80
34081;BME280;20358;50.272;19.026;2022-10-31T15:46:09;98681.38;;;17.51;62.90
34081;BME280;20358;50.272;19.026;2022-10-31T15:49:29;98689.19;;;17.41;63.11
34081;BME280;20358;50.272;19.026;2022-10-31T15:52:40;98690.97;;;17.30;63.33
34081;BME280;20358;50.272;19.026;2022-10-31T15:55:53;98687.44;;;17.18;63.52
34081;BME280;20358;50.272;19.026;2022-10-31T15:59:01;98679.47;;;17.07;63.76
34081;BME280;20358;50.272;19.026;2022-10-31T16:02:13;98684.72;;;16.96;64.06
34081;BME280;20358;50.272;19.026;2022-10-31T16:05:19;98684.69;;;16.85;64.15
34081;BME280;20358;50.272;19.026;2022-10-31T16:08:34;98684.41;;;16.77;64.32
34081;BME280;20358;50.272;19.026;2022-10-31T16:11:42;98680.75;;;16.67;64.77
34081;BME280;20358;50.272;19.026;2022-10-31T16:14:50;98692.97;;;16.56;65.25
34081;BME280;20358;50.272;19.026;2022-10-31T16:18:02;98686.69;;;16.46;65.47
34081;BME280;20358;50.272;19.026;2022-10-31T16:21:09;98695.25;;;16.37;65.65
34081;BME280;20358;50.272;19.026;2022-10-31T16:24:22;98690.53;;;16.30;65.86
34081;BME280;20358;50.272;19.026;2022-10-31T16:27:31;98687.72;;;16.20;66.03
34081;BME280;20358;50.272;19.026;2022-10-31T16:30:40;98690.03;;;16.12;66.29
34081;BME280;20358;50.272;19.026;2022-10-31T16:34:02;98688.81;;;16.05;66.45
34081;BME280;20358;50.272;19.026;2022-10-31T16:37:08;98691.13;;;15.97;66.62
34081;BME280;20358;50.272;19.026;2022-10-31T16:40:15;98691.69;;;15.89;66.75
34081;BME280;20358;50.272;19.026;2022-10-31T16:43:22;98693.06;;;15.82;66.84
34081;BME280;20358;50.272;19.026;2022-10-31T16:46:29;98693.59;;;15.75;67.14
34081;BME280;20358;50.272;19.026;2022-10-31T16:49:38;98688.84;;;15.67;67.44
34081;BME280;20358;50.272;19.026;2022-10-31T16:52:44;98703.25;;;15.63;67.85
34081;BME280;20358;50.272;19.026;2022-10-31T16:56:15;98693.28;;;15.54;67.85